createdAt,value
2019-04-29T00:01:31.610Z,3.90
2019-04-29T00:04:01.901Z,4.00
2019-04-29T00:06:32.915Z,3.73
2019-04-29T00:09:06.744Z,4.13
2019-04-29T00:11:36.035Z,4.23
2019-04-29T00:14:08.306Z,4.10
2019-04-29T00:17:00.356Z,4.20
2019-04-29T00:19:40.984Z,4.13
2019-04-29T00:22:12.172Z,3.70
2019-04-29T00:24:42.528Z,3.70
2019-04-29T00:27:14.365Z,4.10
2019-04-29T00:29:46.376Z,4.20
2019-04-29T00:32:16.665Z,4.17
2019-04-29T00:34:47.389Z,3.60
2019-04-29T00:37:45.997Z,3.93
2019-04-29T00:40:34.835Z,4.17
2019-04-29T00:43:28.783Z,4.00
2019-04-29T00:45:59.923Z,4.67
2019-04-29T00:48:30.408Z,4.30
2019-04-29T00:51:03.183Z,4.50
2019-04-29T00:53:34.105Z,4.17
2019-04-29T00:56:06.263Z,4.10
2019-04-29T00:58:36.802Z,4.33
2019-04-29T01:01:12.495Z,4.63
2019-04-29T01:03:43.673Z,4.60
2019-04-29T01:06:14.004Z,4.20
2019-04-29T01:08:44.760Z,5.03
2019-04-29T01:11:15.059Z,4.67
2019-04-29T01:13:46.982Z,4.57
2019-04-29T01:16:17.757Z,4.10
2019-04-29T01:18:50.160Z,4.67
2019-04-29T01:21:20.909Z,4.57
2019-04-29T01:23:51.247Z,4.63
2019-04-29T01:26:40.553Z,4.60
2019-04-29T01:29:12.468Z,4.60
2019-04-29T01:31:42.797Z,4.33
2019-04-29T01:34:21.996Z,4.77
2019-04-29T01:36:52.275Z,4.60
2019-04-29T01:39:26.461Z,4.27
2019-04-29T01:42:19.103Z,4.40
2019-04-29T01:44:49.423Z,4.70
2019-04-29T01:47:19.724Z,4.70
2019-04-29T01:49:50.388Z,4.60
2019-04-29T01:52:20.747Z,4.80
2019-04-29T01:54:51.058Z,5.57
2019-04-29T01:57:21.418Z,4.97
2019-04-29T01:59:53.347Z,4.63
2019-04-29T02:02:23.620Z,4.27
2019-04-29T02:04:54.335Z,5.00
2019-04-29T02:07:28.635Z,4.60
2019-04-29T02:10:07.131Z,4.70
2019-04-29T02:12:42.721Z,4.83
2019-04-29T02:15:18.882Z,4.97
2019-04-29T02:17:49.448Z,4.83
2019-04-29T02:20:22.694Z,4.83
2019-04-29T02:23:12.056Z,4.93
2019-04-29T02:25:44.649Z,4.23
2019-04-29T02:28:15.304Z,4.70
2019-04-29T02:30:49.353Z,4.17
2019-04-29T02:33:22.888Z,4.70
2019-04-29T02:35:53.162Z,5.13
2019-04-29T02:38:42.293Z,4.50
2019-04-29T02:41:31.823Z,4.87
2019-04-29T02:44:07.274Z,4.67
2019-04-29T02:46:37.617Z,5.00
2019-04-29T02:49:07.942Z,5.27
2019-04-29T02:51:52.979Z,4.50
2019-04-29T02:54:25.256Z,4.43
2019-04-29T02:57:05.438Z,4.70
2019-04-29T02:59:40.070Z,5.13
2019-04-29T03:02:29.097Z,4.53
2019-04-29T03:05:12.715Z,5.27
2019-04-29T03:07:43.443Z,5.50
2019-04-29T03:10:14.501Z,4.50
2019-04-29T03:12:45.960Z,5.17
2019-04-29T03:15:40.060Z,4.53
2019-04-29T03:18:13.864Z,4.97
2019-04-29T03:21:06.388Z,5.40
2019-04-29T03:23:37.172Z,5.40
2019-04-29T03:26:07.552Z,5.07
2019-04-29T03:28:38.054Z,5.57
2019-04-29T03:31:08.419Z,5.30
2019-04-29T03:33:38.768Z,5.07
2019-04-29T03:36:09.322Z,4.73
2019-04-29T03:38:39.932Z,5.03
2019-04-29T03:41:10.246Z,4.87
2019-04-29T03:43:40.768Z,5.20
2019-04-29T03:46:11.392Z,4.90
2019-04-29T03:48:41.756Z,4.90
2019-04-29T03:51:13.205Z,5.10
2019-04-29T03:53:45.002Z,4.60
2019-04-29T03:56:16.284Z,5.13
2019-04-29T03:58:46.720Z,5.10
2019-04-29T04:01:24.303Z,5.20
2019-04-29T04:04:02.980Z,5.13
2019-04-29T04:06:47.135Z,5.17
2019-04-29T04:09:23.186Z,5.40
2019-04-29T04:11:53.508Z,5.30
2019-04-29T04:14:25.298Z,5.03
2019-04-29T04:17:15.111Z,5.30
2019-04-29T04:19:46.573Z,6.03
2019-04-29T04:22:16.875Z,6.13
2019-04-29T04:24:47.553Z,6.17
2019-04-29T04:27:18.246Z,7.57
2019-04-29T04:29:49.760Z,6.50
2019-04-29T04:32:22.548Z,6.23
2019-04-29T04:34:52.840Z,6.73
2019-04-29T04:37:23.967Z,6.03
2019-04-29T04:39:54.654Z,6.43
2019-04-29T04:42:25.064Z,7.00
2019-04-29T04:44:55.443Z,6.93
2019-04-29T04:47:26.523Z,6.97
2019-04-29T04:49:57.280Z,7.43
2019-04-29T04:52:27.563Z,7.20
2019-04-29T04:54:57.946Z,6.97
2019-04-29T04:57:28.242Z,6.47
2019-04-29T04:59:58.378Z,7.23
2019-04-29T05:02:29.002Z,6.50
2019-04-29T05:04:59.284Z,6.20
2019-04-29T05:07:29.932Z,6.83
2019-04-29T05:10:00.196Z,6.03
2019-04-29T05:12:32.052Z,6.93
2019-04-29T05:15:03.527Z,5.60
2019-04-29T05:17:33.829Z,6.13
2019-04-29T05:20:05.520Z,5.03
2019-04-29T05:22:35.855Z,5.60
2019-04-29T05:25:06.563Z,5.37
2019-04-29T05:27:37.216Z,4.90
2019-04-29T05:30:07.643Z,5.07
2019-04-29T05:32:41.074Z,5.43
2019-04-29T05:35:16.396Z,4.20
2019-04-29T05:37:56.875Z,4.43
2019-04-29T05:40:38.033Z,4.47
2019-04-29T05:43:10.147Z,3.90
2019-04-29T05:46:03.363Z,3.80
2019-04-29T05:48:33.741Z,3.45
2019-04-29T05:51:28.558Z,3.83
2019-04-29T05:54:00.455Z,3.67
2019-04-29T05:56:32.010Z,3.33
2019-04-29T05:59:02.359Z,3.50
2019-04-29T06:01:32.653Z,3.17
2019-04-29T06:04:03.033Z,3.10
2019-04-29T06:06:38.089Z,3.35
2019-04-29T06:09:11.506Z,3.52
2019-04-29T06:11:41.294Z,3.30
2019-04-29T06:14:12.044Z,4.03
2019-04-29T06:16:42.435Z,2.95
2019-04-29T06:19:12.804Z,3.20
2019-04-29T06:21:43.518Z,3.00
2019-04-29T06:24:13.836Z,2.75
2019-04-29T06:26:44.377Z,5.03
2019-04-29T06:29:14.774Z,2.98
2019-04-29T06:31:45.281Z,3.02
2019-04-29T06:34:16.578Z,2.85
2019-04-29T06:36:46.893Z,2.95
2019-04-29T06:39:17.691Z,2.85
2019-04-29T06:41:48.019Z,2.83
2019-04-29T06:44:22.920Z,3.10
2019-04-29T06:46:54.438Z,2.60
2019-04-29T06:49:25.298Z,2.40
2019-04-29T06:51:55.620Z,2.42
2019-04-29T06:54:26.241Z,2.77
2019-04-29T06:56:56.883Z,3.17
2019-04-29T06:59:27.666Z,2.62
2019-04-29T07:01:59.090Z,3.00
2019-04-29T07:04:30.673Z,2.50
2019-04-29T07:07:01.693Z,2.25
2019-04-29T07:09:32.265Z,2.80
2019-04-29T07:12:08.239Z,2.50
2019-04-29T07:14:38.595Z,2.50
2019-04-29T07:17:08.105Z,2.40
2019-04-29T07:19:38.416Z,2.20
2019-04-29T07:22:09.023Z,2.37
2019-04-29T07:24:41.005Z,2.33
2019-04-29T07:27:11.339Z,2.20
2019-04-29T07:29:42.102Z,2.67
2019-04-29T07:32:12.409Z,2.33
2019-04-29T07:34:42.793Z,2.62
2019-04-29T07:37:13.114Z,2.10
2019-04-29T07:39:43.416Z,2.67
2019-04-29T07:42:14.133Z,2.67
2019-04-29T07:45:04.456Z,2.85
2019-04-29T07:47:38.659Z,2.77
2019-04-29T07:50:09.906Z,2.95
2019-04-29T07:52:45.597Z,3.30
2019-04-29T07:55:15.066Z,3.98
2019-04-29T07:57:52.175Z,3.65
2019-04-29T08:00:33.039Z,3.60
2019-04-29T08:03:06.838Z,3.70
2019-04-29T08:05:37.252Z,3.85
2019-04-29T08:08:07.588Z,4.10
2019-04-29T08:10:52.238Z,4.08
2019-04-29T08:13:11.535Z,3.70
2019-04-29T08:15:46.603Z,3.83
2019-04-29T08:18:18.249Z,3.75
2019-04-29T08:20:51.733Z,3.80
2019-04-29T08:23:22.021Z,3.50
2019-04-29T08:25:52.646Z,3.60
2019-04-29T08:28:22.999Z,3.87
2019-04-29T08:30:53.279Z,4.05
2019-04-29T08:33:24.043Z,3.72
2019-04-29T08:35:54.619Z,3.65
2019-04-29T08:38:29.355Z,3.67
2019-04-29T08:40:59.662Z,3.42
2019-04-29T08:43:52.490Z,3.30
2019-04-29T08:46:31.139Z,3.52
2019-04-29T08:49:05.962Z,3.60
2019-04-29T08:51:37.464Z,3.30
2019-04-29T08:54:08.047Z,3.40
2019-04-29T08:56:40.773Z,3.40
2019-04-29T08:59:11.134Z,3.87
2019-04-29T09:01:41.459Z,3.70
2019-04-29T09:04:12.138Z,3.45
2019-04-29T09:06:42.884Z,3.45
2019-04-29T09:09:27.893Z,3.58
2019-04-29T09:11:48.328Z,3.50
2019-04-29T09:14:20.620Z,4.20
2019-04-29T09:16:50.961Z,4.15
2019-04-29T09:19:20.268Z,4.05
2019-04-29T09:21:53.997Z,4.05
2019-04-29T09:24:24.362Z,4.05
2019-04-29T09:27:00.645Z,4.58
2019-04-29T09:29:33.911Z,4.45
2019-04-29T09:32:06.894Z,4.47
2019-04-29T09:34:37.776Z,4.95
2019-04-29T09:37:08.107Z,4.30
2019-04-29T09:39:43.829Z,4.65
2019-04-29T09:42:51.983Z,4.00
2019-04-29T09:45:33.763Z,4.80
2019-04-29T09:48:04.272Z,4.20
2019-04-29T09:50:39.022Z,4.12
2019-04-29T09:53:07.763Z,4.20
2019-04-29T09:55:39.984Z,4.28
2019-04-29T09:58:10.840Z,3.85
2019-04-29T10:01:09.307Z,4.00
2019-04-29T10:03:57.411Z,4.12
2019-04-29T10:06:30.167Z,3.58
2019-04-29T10:09:00.778Z,4.10
2019-04-29T10:11:34.019Z,4.08
2019-04-29T10:14:04.912Z,3.95
2019-04-29T10:16:47.038Z,3.67
2019-04-29T10:19:56.817Z,6.35
2019-04-29T10:22:29.450Z,11.53
2019-04-29T10:25:00.099Z,4.08
2019-04-29T10:27:32.114Z,3.87
2019-04-29T10:30:05.313Z,3.90
2019-04-29T10:32:42.361Z,4.12
2019-04-29T10:35:10.872Z,4.00
2019-04-29T10:37:41.441Z,3.80
2019-04-29T10:40:29.093Z,4.17
2019-04-29T10:43:21.687Z,3.75
2019-04-29T10:46:09.260Z,3.50
2019-04-29T10:48:47.248Z,3.80
2019-04-29T10:51:18.815Z,3.67
2019-04-29T10:53:50.908Z,3.83
2019-04-29T10:56:22.106Z,3.83
2019-04-29T10:58:52.791Z,3.90
2019-04-29T11:02:35.371Z,3.60
2019-04-29T11:05:30.957Z,3.65
2019-04-29T11:08:24.957Z,3.50
2019-04-29T11:11:02.289Z,3.37
2019-04-29T11:13:29.113Z,3.02
2019-04-29T11:16:00.772Z,3.40
2019-04-29T11:18:31.181Z,3.62
2019-04-29T11:21:02.275Z,3.40
2019-04-29T11:23:57.763Z,3.83
2019-04-29T11:26:46.668Z,3.85
2019-04-29T11:29:17.457Z,3.80
2019-04-29T11:31:54.168Z,3.72
2019-04-29T11:34:37.223Z,3.80
2019-04-29T11:37:13.852Z,3.85
2019-04-29T11:39:46.222Z,3.72
2019-04-29T11:42:16.864Z,3.90
2019-04-29T11:44:49.565Z,3.67
2019-04-29T11:47:20.986Z,3.90
2019-04-29T11:50:00.224Z,3.52
2019-04-29T11:52:30.597Z,3.65
2019-04-29T11:55:00.903Z,3.50
2019-04-29T11:57:43.679Z,3.70
2019-04-29T12:00:32.681Z,3.60
2019-04-29T12:03:06.998Z,3.50
2019-04-29T12:05:49.630Z,3.30
2019-04-29T12:08:20.056Z,3.22
2019-04-29T12:11:05.885Z,3.70
2019-04-29T12:13:38.902Z,3.50
2019-04-29T12:16:13.718Z,3.05
2019-04-29T12:18:53.942Z,3.92
2019-04-29T12:21:28.788Z,4.08
2019-04-29T12:24:00.719Z,3.70
2019-04-29T12:26:35.509Z,3.90
2019-04-29T12:29:07.023Z,4.20
2019-04-29T12:31:55.252Z,4.42
2019-04-29T12:34:52.903Z,4.85
2019-04-29T12:37:48.464Z,4.08
2019-04-29T12:40:38.842Z,4.00
2019-04-29T12:43:27.817Z,3.70
2019-04-29T12:46:17.304Z,3.40
2019-04-29T12:48:49.146Z,3.50
2019-04-29T12:51:21.840Z,3.42
2019-04-29T12:53:53.160Z,3.50
2019-04-29T12:56:36.097Z,3.50
2019-04-29T12:59:06.734Z,3.15
2019-04-29T13:02:05.734Z,3.70
2019-04-29T13:04:53.926Z,3.20
2019-04-29T13:08:02.246Z,3.35
2019-04-29T13:10:50.548Z,3.15
2019-04-29T13:13:30.833Z,3.85
2019-04-29T13:16:21.982Z,3.40
2019-04-29T13:19:11.867Z,3.60
2019-04-29T13:21:39.629Z,3.40
2019-04-29T13:24:22.881Z,3.35
2019-04-29T13:26:45.595Z,3.50
2019-04-29T13:29:26.777Z,3.80
2019-04-29T13:31:49.355Z,3.10
2019-04-29T13:34:32.862Z,4.20
2019-04-29T13:37:07.177Z,3.70
2019-04-29T13:39:39.773Z,3.65
2019-04-29T13:42:10.592Z,2.98
2019-04-29T13:44:42.594Z,3.30
2019-04-29T13:47:31.014Z,3.30
2019-04-29T13:50:19.105Z,3.40
2019-04-29T13:52:43.015Z,3.22
2019-04-29T13:55:46.218Z,3.40
2019-04-29T13:57:51.003Z,3.50
2019-04-29T14:00:31.602Z,3.17
2019-04-29T14:03:07.315Z,3.40
2019-04-29T14:05:41.870Z,3.08
2019-04-29T14:08:12.337Z,3.30
2019-04-29T14:10:46.882Z,3.12
2019-04-29T14:13:20.817Z,3.45
2019-04-29T14:15:49.620Z,3.47
2019-04-29T14:18:23.357Z,3.52
2019-04-29T14:20:53.668Z,3.17
2019-04-29T14:23:24.266Z,3.40
2019-04-29T14:25:54.522Z,3.45
2019-04-29T14:28:30.320Z,3.05
2019-04-29T14:31:02.744Z,3.10
2019-04-29T14:33:40.593Z,3.20
2019-04-29T14:36:11.400Z,3.45
2019-04-29T14:38:42.667Z,3.40
2019-04-29T14:41:14.040Z,3.15
2019-04-29T14:44:02.148Z,3.30
2019-04-29T14:46:56.203Z,3.22
2019-04-29T14:49:39.841Z,3.40
2019-04-29T14:52:13.351Z,3.30
2019-04-29T14:54:43.544Z,3.58
2019-04-29T14:57:13.990Z,3.12
2019-04-29T14:59:44.574Z,3.42
2019-04-29T15:02:23.124Z,3.27
2019-04-29T15:04:55.502Z,3.60
2019-04-29T15:07:27.440Z,3.37
2019-04-29T15:09:58.677Z,3.75
2019-04-29T15:13:01.582Z,3.10
2019-04-29T15:15:42.384Z,3.47
2019-04-29T15:18:47.395Z,3.27
2019-04-29T15:21:13.739Z,3.30
2019-04-29T15:23:44.013Z,3.10
2019-04-29T15:26:14.348Z,3.30
2019-04-29T15:28:51.034Z,3.30
2019-04-29T15:31:24.420Z,3.65
2019-04-29T15:33:54.749Z,3.50
2019-04-29T15:36:25.100Z,3.55
2019-04-29T15:39:09.035Z,3.70
2019-04-29T15:41:31.045Z,3.22
2019-04-29T15:44:07.744Z,3.50
2019-04-29T15:46:45.219Z,3.12
2019-04-29T15:49:04.107Z,3.50
2019-04-29T15:51:34.631Z,3.92
2019-04-29T15:54:09.146Z,3.62
2019-04-29T15:56:39.977Z,2.85
2019-04-29T15:59:11.540Z,3.25
2019-04-29T16:01:43.395Z,3.25
2019-04-29T16:04:22.910Z,3.22
2019-04-29T16:07:06.960Z,3.83
2019-04-29T16:09:57.470Z,3.47
2019-04-29T16:12:36.847Z,3.50
2019-04-29T16:15:07.411Z,3.45
2019-04-29T16:17:39.442Z,3.45
2019-04-29T16:20:09.989Z,3.37
2019-04-29T16:22:45.239Z,3.65
2019-04-29T16:25:19.107Z,3.15
2019-04-29T16:27:53.315Z,3.50
2019-04-29T16:32:55.878Z,3.58
2019-04-29T16:35:34.466Z,3.58
2019-04-29T16:38:05.555Z,3.58
2019-04-29T16:41:51.152Z,3.50
2019-04-29T16:44:34.542Z,4.55
2019-04-29T16:46:54.850Z,3.22
2019-04-29T16:49:25.847Z,3.60
2019-04-29T16:51:56.258Z,3.80
2019-04-29T16:54:28.480Z,3.83
2019-04-29T16:56:59.065Z,3.70
2019-04-29T16:59:29.427Z,3.70
2019-04-29T17:02:02.549Z,3.80
2019-04-29T17:04:32.889Z,4.20
2019-04-29T17:07:13.946Z,3.95
2019-04-29T17:10:09.162Z,3.70
2019-04-29T17:12:46.312Z,3.55
2019-04-29T17:15:26.106Z,3.52
2019-04-29T17:17:57.169Z,3.85
2019-04-29T17:20:27.592Z,4.10
2019-04-29T17:22:58.232Z,3.52
2019-04-29T17:25:28.538Z,3.65
2019-04-29T17:28:12.452Z,4.28
2019-04-29T17:31:01.793Z,3.37
2019-04-29T17:33:49.144Z,3.67
2019-04-29T17:35:17.373Z,3.40
2019-04-29T17:36:13.710Z,3.92
2019-04-29T17:38:44.187Z,3.40
2019-04-29T17:41:14.582Z,3.90
2019-04-29T17:43:53.030Z,3.70
2019-04-29T17:46:48.388Z,4.03
2019-04-29T17:49:29.382Z,3.65
2019-04-29T17:52:02.933Z,3.75
2019-04-29T17:54:35.866Z,3.77
2019-04-29T17:57:29.210Z,3.60
2019-04-29T18:00:26.216Z,3.98
2019-04-29T18:03:22.097Z,3.70
2019-04-29T18:06:11.479Z,3.90
2019-04-29T18:08:56.674Z,3.72
2019-04-29T18:11:28.037Z,3.62
2019-04-29T18:13:58.731Z,3.50
2019-04-29T18:16:39.587Z,4.05
2019-04-29T18:19:17.508Z,3.27
2019-04-29T18:22:07.367Z,3.45
2019-04-29T18:24:45.318Z,3.87
2019-04-29T18:27:18.215Z,4.00
2019-04-29T18:29:48.574Z,3.60
2019-04-29T18:32:18.876Z,3.80
2019-04-29T18:34:49.540Z,4.08
2019-04-29T18:37:20.479Z,3.62
2019-04-29T18:39:50.816Z,3.58
2019-04-29T18:42:22.305Z,3.40
2019-04-29T18:44:59.325Z,3.70
2019-04-29T18:47:36.334Z,3.65
2019-04-29T18:50:06.419Z,3.50
2019-04-29T18:52:38.829Z,3.60
2019-04-29T18:55:09.228Z,3.60
2019-04-29T18:57:40.339Z,4.05
2019-04-29T19:00:12.021Z,3.60
2019-04-29T19:02:46.023Z,3.83
2019-04-29T19:05:46.038Z,3.12
2019-04-29T19:08:22.763Z,4.05
2019-04-29T19:10:51.008Z,3.40
2019-04-29T19:13:21.338Z,3.00
2019-04-29T19:15:51.810Z,3.77
2019-04-29T19:18:25.502Z,3.37
2019-04-29T19:20:57.920Z,3.27
2019-04-29T19:23:29.722Z,3.12
2019-04-29T19:26:00.258Z,3.00
2019-04-29T19:28:32.533Z,3.40
2019-04-29T19:31:09.384Z,3.92
2019-04-29T19:33:39.290Z,3.73
2019-04-29T19:36:17.080Z,3.40
2019-04-29T19:38:43.404Z,3.17
2019-04-29T19:41:16.346Z,3.60
2019-04-29T19:43:48.360Z,3.90
2019-04-29T19:46:24.150Z,3.73
2019-04-29T19:48:51.626Z,3.63
2019-04-29T19:51:23.105Z,4.07
2019-04-29T19:53:55.244Z,3.30
2019-04-29T19:56:27.110Z,3.73
2019-04-29T19:58:58.593Z,3.97
2019-04-29T20:01:32.069Z,3.50
2019-04-29T20:04:15.873Z,4.03
2019-04-29T20:06:44.904Z,4.77
2019-04-29T20:09:21.647Z,3.83
2019-04-29T20:11:49.062Z,4.03
2019-04-29T20:14:26.624Z,3.53
2019-04-29T20:17:23.653Z,3.93
2019-04-29T20:20:05.613Z,3.90
2019-04-29T20:22:37.404Z,3.70
2019-04-29T20:25:09.619Z,3.90
2019-04-29T20:27:42.943Z,3.37
2019-04-29T20:30:19.649Z,4.23
2019-04-29T20:32:47.712Z,4.10
2019-04-29T20:35:21.369Z,4.23
2019-04-29T20:37:58.482Z,4.10
2019-04-29T20:40:26.909Z,3.70
2019-04-29T20:42:58.693Z,3.90
2019-04-29T20:45:30.718Z,3.70
2019-04-29T20:48:01.481Z,3.83
2019-04-29T20:50:35.217Z,3.80
2019-04-29T20:53:39.922Z,3.80
2019-04-29T20:56:12.317Z,3.70
2019-04-29T20:58:40.876Z,4.50
2019-04-29T21:01:16.761Z,3.73
2019-04-29T21:03:52.180Z,3.97
2019-04-29T21:06:21.542Z,3.57
2019-04-29T21:08:52.288Z,3.70
2019-04-29T21:11:29.472Z,4.00
2019-04-29T21:14:33.707Z,4.60
2019-04-29T21:16:57.540Z,4.63
2019-04-29T21:19:30.804Z,4.40
2019-04-29T21:22:02.968Z,4.43
2019-04-29T21:24:35.410Z,4.20
2019-04-29T21:27:09.768Z,4.33
2019-04-29T21:29:40.097Z,3.93
2019-04-29T21:32:10.496Z,3.90
2019-04-29T21:34:47.461Z,4.57
2019-04-29T21:37:25.860Z,4.10
2019-04-29T21:40:14.701Z,4.10
2019-04-29T21:42:47.564Z,4.40
2019-04-29T21:45:19.231Z,4.57
2019-04-29T21:47:53.490Z,4.73
2019-04-29T21:50:27.196Z,4.13
2019-04-29T21:53:01.712Z,3.77
2019-04-29T21:55:29.313Z,4.60
2019-04-29T21:58:00.554Z,4.50
2019-04-29T22:00:31.984Z,4.50
2019-04-29T22:03:02.363Z,4.03
2019-04-29T22:05:35.370Z,4.47
2019-04-29T22:08:05.872Z,4.63
2019-04-29T22:10:42.189Z,4.20
2019-04-29T22:13:12.458Z,4.10
2019-04-29T22:15:42.793Z,4.53
2019-04-29T22:18:15.291Z,4.97
2019-04-29T22:20:45.258Z,4.70
2019-04-29T22:23:17.312Z,5.30
2019-04-29T22:25:49.947Z,4.53
2019-04-29T22:28:21.857Z,4.27
2019-04-29T22:30:54.785Z,4.20
2019-04-29T22:33:25.223Z,4.90
2019-04-29T22:35:57.611Z,4.77
2019-04-29T22:38:27.930Z,5.03
2019-04-29T22:41:00.277Z,4.53
2019-04-29T22:43:46.991Z,4.53
2019-04-29T22:46:12.593Z,4.60
2019-04-29T22:48:45.367Z,4.33
2019-04-29T22:51:18.880Z,4.93
2019-04-29T22:53:48.308Z,5.10
2019-04-29T22:56:21.277Z,4.90
2019-04-29T22:58:51.915Z,4.83
2019-04-29T23:01:22.528Z,5.43
2019-04-29T23:03:55.542Z,5.27
2019-04-29T23:06:26.555Z,4.63
2019-04-29T23:08:57.707Z,4.73
2019-04-29T23:11:28.068Z,4.70
2019-04-29T23:14:01.766Z,4.90
2019-04-29T23:16:31.595Z,4.20
2019-04-29T23:19:02.453Z,4.93
2019-04-29T23:21:51.734Z,4.87
2019-04-29T23:24:55.763Z,5.07
2019-04-29T23:27:26.339Z,4.60
2019-04-29T23:29:56.703Z,4.80
2019-04-29T23:32:27.025Z,4.87
2019-04-29T23:35:01.809Z,4.67
2019-04-29T23:37:31.399Z,4.70
2019-04-29T23:40:01.520Z,4.50
2019-04-29T23:42:33.752Z,3.97
2019-04-29T23:45:05.327Z,4.90
2019-04-29T23:47:35.869Z,4.93
2019-04-29T23:50:08.589Z,4.93
2019-04-29T23:52:50.322Z,5.13
2019-04-29T23:55:25.655Z,5.23
2019-04-29T23:58:20.298Z,5.40
